Time;durP1;ratioP1;P1;durP2;ratioP2;P2;SDS_P1;SDS_P2;PMS_P1;PMS_P2;Temp;Humidity;BMP_temperature;BMP_pressure;BME280_temperature;BME280_humidity;BME280_pressure;Samples;Min_cycle;Max_cycle;Signal;HPM_P1;HPM_P2
2022/12/09 00:01:52;;;;;;;19.27;10.77;;;;;;;-141.28;100.00;51938.13;5102924;28;20859;-76
2022/12/09 00:04:19;;;;;;;18.50;10.53;;;;;;;-141.28;100.00;52002.91;5105814;28;21012;-77
2022/12/09 00:06:46;;;;;;;21.07;11.17;;;;;;;-141.28;100.00;52053.97;5102882;28;20444;-75
2022/12/09 00:09:15;;;;;;;20.37;11.10;;;;;;;-141.28;100.00;52073.63;5095444;28;20453;-76
2022/12/09 00:11:43;;;;;;;18.20;10.70;;;;;;;-141.28;100.00;52034.34;5092413;28;20893;-75
2022/12/09 00:14:11;;;;;;;20.27;10.93;;;;;;;-141.28;100.00;52020.59;5092272;28;20465;-76
2022/12/09 00:16:40;;;;;;;19.87;10.10;;;;;;;-141.28;100.00;51999.00;5092193;28;20446;-76
2022/12/09 00:19:07;;;;;;;21.13;11.40;;;;;;;-141.28;100.00;52030.41;5092211;28;20441;-78
2022/12/09 00:21:34;;;;;;;22.27;11.40;;;;;;;-141.28;100.00;51374.56;5092425;28;20915;-75
2022/12/09 00:24:04;;;;;;;19.07;10.67;;;;;;;-141.28;100.00;52042.19;5092254;28;20526;-78
2022/12/09 00:26:33;;;;;;;18.77;11.00;;;;;;;-141.28;100.00;52002.91;5092195;28;20960;-79
2022/12/09 00:29:01;;;;;;;23.63;11.43;;;;;;;-141.28;100.00;51987.22;5092444;28;20453;-78
2022/12/09 00:31:32;;;;;;;21.00;11.13;;;;;;;-141.28;100.00;51922.41;5091910;28;20454;-76
2022/12/09 00:34:03;;;;;;;24.03;12.20;;;;;;;-141.28;100.00;51991.13;5099046;28;20496;-78
2022/12/09 00:36:32;;;;;;;24.00;11.77;;;;;;;-141.28;100.00;52036.31;5113160;28;20436;-77
2022/12/09 00:38:59;;;;;;;20.17;11.70;;;;;;;-141.28;100.00;52059.88;5108112;28;20956;-75
2022/12/09 00:41:28;;;;;;;21.67;11.70;;;;;;;-141.28;100.00;52016.66;5112523;28;20465;-75
2022/12/09 00:43:59;;;;;;;22.40;11.40;;;;;;;-141.28;100.00;52006.84;5107850;28;20456;-75
2022/12/09 00:46:31;;;;;;;22.60;11.03;;;;;;;-141.28;100.00;52030.41;5094400;28;20442;-77
2022/12/09 00:48:59;;;;;;;21.30;11.20;;;;;;;-141.28;100.00;51942.03;5098827;28;20461;-78
2022/12/09 00:51:34;;;;;;;19.93;10.57;;;;;;;-141.28;100.00;51918.47;5096460;28;20456;-75
2022/12/09 00:54:04;;;;;;;17.63;10.47;;;;;;;-141.28;100.00;51873.31;5098030;28;20480;-76
2022/12/09 00:56:32;;;;;;;19.47;10.77;;;;;;;-141.28;100.00;51830.09;5098017;28;20449;-75
2022/12/09 00:59:01;;;;;;;21.17;10.67;;;;;;;-141.28;100.00;51816.38;5099583;28;20889;-74
2022/12/09 01:01:29;;;;;;;25.17;12.23;;;;;;;-141.28;100.00;51830.09;5100559;28;20469;-75
2022/12/09 01:03:56;;;;;;;24.40;12.40;;;;;;;-141.28;100.00;51875.28;5098242;28;20492;-77
2022/12/09 01:06:29;;;;;;;26.30;12.77;;;;;;;-141.28;100.00;51830.09;5104923;28;20468;-74
2022/12/09 01:08:58;;;;;;;20.67;11.37;;;;;;;-141.28;100.00;51834.03;5122665;28;20452;-74
2022/12/09 01:14:11;;;;;;;24.50;11.77;;;;;;;-141.28;100.00;51765.31;5118512;28;20495;-75
2022/12/09 01:16:38;;;;;;;23.17;11.47;;;;;;;-141.28;100.00;51777.09;5113571;28;20450;-75
2022/12/09 01:19:08;;;;;;;20.80;11.10;;;;;;;-141.28;100.00;51786.91;5105819;28;20511;-77
2022/12/09 01:21:36;;;;;;;22.20;11.87;;;;;;;-141.28;100.00;51767.28;5107758;28;20446;-74
2022/12/09 01:24:08;;;;;;;21.07;11.60;;;;;;;-141.28;100.00;51808.50;5095531;28;20469;-78
2022/12/09 01:26:35;;;;;;;23.20;11.93;;;;;;;-141.28;100.00;51775.13;5100116;28;20454;-73
2022/12/09 01:29:03;;;;;;;24.27;10.60;;;;;;;-141.28;100.00;51712.28;5097984;28;20951;-72
2022/12/09 01:31:30;;;;;;;21.10;11.67;;;;;;;-141.28;100.00;51822.25;5111231;28;20523;-74
2022/12/09 01:33:57;;;;;;;21.73;11.57;;;;;;;-141.28;100.00;51790.84;5111530;28;20510;-74
2022/12/09 01:36:27;;;;;;;17.80;11.07;;;;;;;-141.28;100.00;51849.75;5100281;28;20445;-74
2022/12/09 01:38:56;;;;;;;20.70;11.93;;;;;;;-141.28;100.00;51802.63;5098492;28;20446;-76
2022/12/09 01:41:25;;;;;;;19.47;11.23;;;;;;;-141.28;100.00;51602.34;5093806;28;20448;-75
2022/12/09 01:44:14;;;;;;;18.83;10.97;;;;;;;-141.28;100.00;51714.25;5092115;28;20453;-75
2022/12/09 01:46:42;;;;;;;19.07;11.30;;;;;;;-141.28;100.00;51733.88;5102726;28;20452;-75
2022/12/09 01:49:15;;;;;;;25.63;12.47;;;;;;;-141.28;100.00;51755.50;5098224;28;20449;-75
2022/12/09 01:51:46;;;;;;;25.20;12.07;;;;;;;-141.28;100.00;51763.34;5096872;28;20440;-74
2022/12/09 01:54:14;;;;;;;23.27;12.40;;;;;;;-141.28;100.00;51779.06;5113085;28;20537;-74
2022/12/09 01:56:42;;;;;;;22.17;12.17;;;;;;;-141.28;100.00;51828.16;5098111;28;20437;-75
2022/12/09 01:59:13;;;;;;;25.10;12.23;;;;;;;-141.28;100.00;51814.41;5090912;28;20454;-76
2022/12/09 02:01:42;;;;;;;21.93;11.97;;;;;;;-141.28;100.00;51786.91;5092348;28;20837;-77
2022/12/09 02:04:09;;;;;;;26.33;12.20;;;;;;;-141.28;100.00;51794.75;5107127;28;20457;-76
2022/12/09 02:06:37;;;;;;;21.33;12.97;;;;;;;-141.28;100.00;51867.41;5104252;28;20974;-75
2022/12/09 02:09:05;;;;;;;21.30;12.50;;;;;;;-141.28;100.00;51900.81;5095548;28;20511;-81
2022/12/09 02:11:44;;;;;;;24.63;12.53;;;;;;;-141.28;100.00;51759.41;5094954;28;20450;-76
2022/12/09 02:14:18;;;;;;;24.67;13.57;;;;;;;-141.28;100.00;51806.53;5094608;28;20493;-78
2022/12/09 02:16:55;;;;;;;28.97;14.00;;;;;;;-141.28;100.00;51798.69;5094528;28;20948;-80
2022/12/09 02:19:37;;;;;;;25.67;12.80;;;;;;;-141.28;100.00;51623.94;5104743;28;20452;-77
2022/12/09 02:22:04;;;;;;;28.37;12.90;;;;;;;-141.28;100.00;51720.16;5096467;28;20475;-77
2022/12/09 02:24:41;;;;;;;28.73;13.70;;;;;;;-141.28;100.00;51720.16;5093623;28;20480;-77
2022/12/09 02:27:15;;;;;;;23.33;12.83;;;;;;;-141.28;100.00;51712.28;5094305;28;20464;-78
2022/12/09 02:30:04;;;;;;;27.17;13.50;;;;;;;-141.28;100.00;51669.09;5094646;28;20481;-76
2022/12/09 02:33:16;;;;;;;21.37;12.50;;;;;;;-141.28;100.00;51567.00;5091657;28;20824;-76
2022/12/09 02:35:49;;;;;;;22.57;12.33;;;;;;;-141.28;100.00;51384.38;5094462;28;20472;-79
2022/12/09 02:38:20;;;;;;;25.90;12.40;;;;;;;-141.28;100.00;51464.88;5100200;28;20966;-76
2022/12/09 02:40:51;;;;;;;23.07;11.37;;;;;;;-141.28;100.00;51488.44;5101273;28;20460;-77
2022/12/09 02:43:21;;;;;;;27.37;12.80;;;;;;;-141.28;100.00;51504.16;5102025;28;20456;-79
2022/12/09 02:45:50;;;;;;;20.73;12.43;;;;;;;-141.28;100.00;51563.06;5114095;28;20449;-79
2022/12/09 02:48:23;;;;;;;25.80;13.13;;;;;;;-141.28;100.00;51460.97;5106239;28;20449;-76
2022/12/09 02:50:55;;;;;;;23.90;12.90;;;;;;;-141.28;100.00;51641.59;5093968;28;20466;-76
2022/12/09 02:53:25;;;;;;;24.00;13.30;;;;;;;-141.28;100.00;51612.16;5100885;28;20910;-75
2022/12/09 02:55:56;;;;;;;23.60;12.80;;;;;;;-141.28;100.00;51618.03;5105696;28;20952;-76
2022/12/09 02:58:22;;;;;;;22.30;12.90;;;;;;;-141.28;100.00;51568.94;5093698;28;20445;-76
2022/12/09 03:00:51;;;;;;;25.37;13.80;;;;;;;-141.28;100.00;51688.72;5103891;28;20528;-77
2022/12/09 03:03:19;;;;;;;32.57;17.33;;;;;;;-141.28;100.00;51704.44;5097105;28;20499;-76
2022/12/09 03:05:56;;;;;;;28.20;15.30;;;;;;;-141.28;100.00;51755.50;5093764;28;20433;-77
2022/12/09 03:08:31;;;;;;;29.20;14.03;;;;;;;-141.28;100.00;51763.34;5112648;28;20531;-76
2022/12/09 03:11:03;;;;;;;29.77;15.00;;;;;;;-141.28;100.00;51724.06;5113628;28;20451;-76
2022/12/09 03:13:42;;;;;;;26.20;12.83;;;;;;;-141.28;100.00;51743.72;5107900;28;20477;-75
2022/12/09 03:16:19;;;;;;;26.37;13.57;;;;;;;-141.28;100.00;51710.31;5108067;28;20474;-76
2022/12/09 03:18:52;;;;;;;23.90;13.30;;;;;;;-141.28;100.00;51661.25;5103622;28;20436;-75
2022/12/09 03:21:24;;;;;;;27.93;13.77;;;;;;;-141.28;100.00;51728.00;5112797;28;20460;-76
2022/12/09 03:23:55;;;;;;;25.40;14.40;;;;;;;-141.28;100.00;51692.66;5110464;28;20445;-76
2022/12/09 03:26:27;;;;;;;40.07;20.43;;;;;;;-141.28;100.00;51739.78;5111682;28;21036;-77
2022/12/09 03:28:56;;;;;;;38.70;20.80;;;;;;;-141.28;100.00;51720.16;5093761;28;20944;-77
2022/12/09 03:31:27;;;;;;;51.93;24.40;;;;;;;-141.28;100.00;51682.84;5093903;28;20467;-77
2022/12/09 03:33:58;;;;;;;34.97;18.77;;;;;;;-141.28;100.00;51739.78;5103700;28;20488;-76
2022/12/09 03:36:29;;;;;;;34.70;18.20;;;;;;;-141.28;100.00;51700.50;5096485;28;20453;-76
2022/12/09 03:38:57;;;;;;;38.53;20.00;;;;;;;-141.28;100.00;51724.06;5093752;28;20959;-78
2022/12/09 03:41:29;;;;;;;35.87;19.13;;;;;;;-141.28;100.00;51755.50;5093087;28;20445;-75
2022/12/09 03:43:59;;;;;;;34.10;19.00;;;;;;;-141.28;100.00;51680.88;5104033;28;20877;-75
2022/12/09 03:46:29;;;;;;;30.07;17.33;;;;;;;-141.28;100.00;51708.38;5108250;28;20955;-76
2022/12/09 03:48:58;;;;;;;28.47;16.30;;;;;;;-141.28;100.00;51653.38;5092687;28;20488;-76
2022/12/09 03:51:33;;;;;;;27.67;15.43;;;;;;;-141.28;100.00;51665.16;5099013;28;20441;-76
2022/12/09 03:54:06;;;;;;;30.07;15.30;;;;;;;-141.28;100.00;51610.19;5099363;28;20480;-77
2022/12/09 03:56:39;;;;;;;27.37;14.60;;;;;;;-141.28;100.00;51629.81;5111471;28;20453;-78
2022/12/09 03:59:11;;;;;;;25.67;13.53;;;;;;;-141.28;100.00;51578.78;5092712;28;20960;-76
2022/12/09 04:01:40;;;;;;;26.70;13.13;;;;;;;-141.28;100.00;51563.06;5109023;28;20451;-77
2022/12/09 04:04:07;;;;;;;31.43;15.23;;;;;;;-141.28;100.00;51512.00;5112534;28;20449;-76
2022/12/09 04:06:36;;;;;;;44.40;21.33;;;;;;;-141.28;100.00;51728.00;5111712;28;20440;-78
2022/12/09 04:09:04;;;;;;;38.30;21.50;;;;;;;-141.28;100.00;51728.00;5111507;28;20465;-76
2022/12/09 04:11:31;;;;;;;33.50;19.17;;;;;;;-141.28;100.00;51779.06;5111964;28;20452;-76
2022/12/09 04:13:58;;;;;;;40.87;19.43;;;;;;;-141.28;100.00;51781.03;5097568;28;20507;-76
2022/12/09 04:16:26;;;;;;;27.00;15.27;;;;;;;-141.28;100.00;51790.84;5092673;28;20537;-77
2022/12/09 04:18:53;;;;;;;127.57;61.23;;;;;;;-141.28;100.00;51798.69;5092485;28;20453;-76
2022/12/09 04:21:20;;;;;;;50.57;27.40;;;;;;;-141.28;100.00;51794.75;5092328;28;20469;-74
2022/12/09 04:23:49;;;;;;;49.67;18.97;;;;;;;-141.28;100.00;51804.59;5101980;28;20963;-75
2022/12/09 04:26:19;;;;;;;55.80;23.33;;;;;;;-141.28;100.00;51767.28;5095110;28;20466;-76
2022/12/09 04:28:46;;;;;;;59.53;25.33;;;;;;;-141.28;100.00;51784.94;5103143;28;20507;-75
2022/12/09 04:31:14;;;;;;;59.77;24.47;;;;;;;-141.28;100.00;51728.00;5098586;28;20453;-78
2022/12/09 04:33:42;;;;;;;41.23;18.93;;;;;;;-141.28;100.00;51747.63;5101072;28;20492;-78
2022/12/09 04:36:10;;;;;;;39.20;19.80;;;;;;;-141.28;100.00;51486.50;5113509;28;20951;-75
2022/12/09 04:38:38;;;;;;;49.53;21.40;;;;;;;-141.28;100.00;51794.75;5113579;28;20459;-79
2022/12/09 04:41:07;;;;;;;38.27;19.00;;;;;;;-141.28;100.00;51837.97;5092890;28;20823;-77
2022/12/09 04:43:36;;;;;;;42.47;19.23;;;;;;;-141.28;100.00;51818.31;5105191;28;20502;-76
2022/12/09 04:46:05;;;;;;;45.73;22.27;;;;;;;-141.28;100.00;51763.34;5098314;28;20449;-78
2022/12/09 04:48:33;;;;;;;35.70;16.70;;;;;;;-141.28;100.00;51826.19;5112298;28;20449;-79
2022/12/09 04:51:00;;;;;;;35.73;17.27;;;;;;;-141.28;100.00;51782.97;5092674;28;20798;-76
2022/12/09 04:53:28;;;;;;;36.07;18.17;;;;;;;-141.28;100.00;51716.22;5091802;28;20872;-75
2022/12/09 04:55:59;;;;;;;54.83;32.80;;;;;;;-141.28;100.00;51775.13;5093485;28;20495;-74
2022/12/09 04:58:28;;;;;;;44.90;23.43;;;;;;;-141.28;100.00;51761.38;5091622;28;20872;-76
2022/12/09 05:00:55;;;;;;;50.17;27.80;;;;;;;-141.28;100.00;51792.81;5092426;28;20453;-77
2022/12/09 05:03:24;;;;;;;41.60;23.87;;;;;;;-141.28;100.00;51782.97;5092056;28;20452;-78
2022/12/09 05:05:51;;;;;;;41.87;22.27;;;;;;;-141.28;100.00;51739.78;5094806;28;20457;-78
2022/12/09 05:08:18;;;;;;;34.03;20.03;;;;;;;-141.28;100.00;51775.13;5110900;28;20816;-76
2022/12/09 05:10:46;;;;;;;38.47;19.33;;;;;;;-141.28;100.00;51743.72;5100805;28;20454;-76
2022/12/09 05:13:13;;;;;;;34.47;16.77;;;;;;;-141.28;100.00;51759.41;5099911;28;20448;-75
2022/12/09 05:15:41;;;;;;;34.10;17.80;;;;;;;-141.28;100.00;51739.78;5102088;28;20479;-74
2022/12/09 05:18:09;;;;;;;31.37;17.53;;;;;;;-141.28;100.00;51755.50;5105041;28;20934;-74
2022/12/09 05:20:38;;;;;;;35.00;18.67;;;;;;;-141.28;100.00;51735.84;5094163;28;20470;-78
2022/12/09 05:23:05;;;;;;;30.77;16.47;;;;;;;-141.28;100.00;51743.72;5091642;28;20441;-75
2022/12/09 05:25:32;;;;;;;42.57;19.23;;;;;;;-141.28;100.00;51684.81;5091243;28;20488;-76
2022/12/09 05:27:59;;;;;;;44.60;19.40;;;;;;;-141.28;100.00;51113.44;5091726;28;20449;-76
2022/12/09 05:30:27;;;;;;;43.43;22.07;;;;;;;-141.28;100.00;51663.19;5091257;28;20453;-79
2022/12/09 05:32:56;;;;;;;51.50;27.30;;;;;;;-141.28;100.00;51718.19;5091233;28;20533;-79
2022/12/09 05:35:23;;;;;;;48.57;25.53;;;;;;;-141.28;100.00;51741.75;5091687;28;20489;-76
2022/12/09 05:37:51;;;;;;;49.63;26.47;;;;;;;-141.28;100.00;51763.34;5091489;28;20960;-76
2022/12/09 05:40:18;;;;;;;52.97;26.03;;;;;;;-141.28;100.00;51790.84;5099838;28;20460;-77
2022/12/09 05:42:46;;;;;;;100.13;54.00;;;;;;;-141.28;100.00;51830.09;5109261;28;20452;-76
2022/12/09 05:45:15;;;;;;;52.30;28.17;;;;;;;-141.28;100.00;51832.06;5115548;28;20501;-76
2022/12/09 05:47:42;;;;;;;54.50;28.37;;;;;;;-141.28;100.00;51767.28;5115684;28;20440;-75
2022/12/09 05:50:11;;;;;;;52.43;27.73;;;;;;;-141.28;100.00;51800.66;5109249;28;20445;-76
2022/12/09 05:52:38;;;;;;;56.03;27.53;;;;;;;-141.28;100.00;51814.41;5094919;28;20448;-77
2022/12/09 05:55:07;;;;;;;50.30;27.13;;;;;;;-141.28;100.00;51843.84;5095548;28;20500;-79
2022/12/09 05:57:35;;;;;;;65.30;31.17;;;;;;;-141.28;100.00;51684.81;5094858;28;20842;-79
2022/12/09 06:00:04;;;;;;;60.83;29.37;;;;;;;-141.28;100.00;51790.84;5098515;28;20531;-77
2022/12/09 06:02:31;;;;;;;77.83;38.40;;;;;;;-141.28;100.00;51543.44;5104367;28;20448;-76
2022/12/09 06:05:00;;;;;;;50.93;27.97;;;;;;;-141.28;100.00;51724.06;5108596;28;20438;-75
2022/12/09 06:07:29;;;;;;;57.97;29.87;;;;;;;-141.28;100.00;51724.06;5095205;28;20891;-78
2022/12/09 06:09:56;;;;;;;65.20;31.97;;;;;;;-141.28;100.00;51700.50;5108168;28;20445;-77
2022/12/09 06:12:24;;;;;;;66.17;33.83;;;;;;;-141.28;100.00;51696.59;5094724;28;20503;-76
2022/12/09 06:14:51;;;;;;;58.80;29.67;;;;;;;-141.28;100.00;51753.53;5101677;28;21072;-78
2022/12/09 06:17:19;;;;;;;57.77;26.47;;;;;;;-141.28;100.00;51830.09;5101145;28;20450;-75
2022/12/09 06:19:46;;;;;;;59.17;39.33;;;;;;;-141.28;100.00;51798.69;5107303;28;20967;-78
2022/12/09 06:22:13;;;;;;;48.07;29.10;;;;;;;-141.28;100.00;51696.59;5094535;28;20506;-76
2022/12/09 06:24:41;;;;;;;45.77;23.23;;;;;;;-141.28;100.00;51828.16;5094179;28;20515;-75
2022/12/09 06:27:10;;;;;;;52.57;29.37;;;;;;;-141.28;100.00;51830.09;5107473;28;20453;-75
2022/12/09 06:29:38;;;;;;;56.40;27.47;;;;;;;-141.28;100.00;51837.97;5094280;28;20541;-76
2022/12/09 06:32:06;;;;;;;50.17;28.03;;;;;;;-141.28;100.00;51877.25;5096371;28;20449;-78
2022/12/09 06:34:33;;;;;;;330.63;126.80;;;;;;;-141.28;100.00;51861.53;5114227;28;20548;-78
2022/12/09 06:37:01;;;;;;;191.20;76.17;;;;;;;-141.28;100.00;51892.94;5111131;28;20503;-76
2022/12/09 06:39:28;;;;;;;533.03;240.67;;;;;;;-141.28;100.00;51873.31;5096020;28;20802;-76
2022/12/09 06:41:56;;;;;;;374.53;147.83;;;;;;;-141.28;100.00;51853.69;5094237;28;20453;-77
2022/12/09 06:44:24;;;;;;;68.20;29.83;;;;;;;-141.28;100.00;51798.69;5094940;28;20495;-80
2022/12/09 06:46:53;;;;;;;58.57;31.57;;;;;;;-141.28;100.00;51869.38;5094207;28;20967;-78
2022/12/09 06:49:19;;;;;;;58.97;29.83;;;;;;;-141.28;100.00;51814.41;5093985;28;20507;-77
2022/12/09 06:51:47;;;;;;;53.90;29.93;;;;;;;-141.28;100.00;51834.03;5095002;28;20990;-77
2022/12/09 06:54:14;;;;;;;55.83;30.43;;;;;;;-141.28;100.00;51786.91;5093763;28;20492;-79
2022/12/09 06:56:41;;;;;;;69.27;33.63;;;;;;;-141.28;100.00;51873.31;5094992;28;20437;-77
2022/12/09 06:59:10;;;;;;;78.67;35.20;;;;;;;-141.28;100.00;51875.28;5114215;28;20460;-77
2022/12/09 07:01:38;;;;;;;78.10;36.37;;;;;;;-141.28;100.00;51853.69;5114338;28;20445;-78
2022/12/09 07:04:06;;;;;;;60.80;28.90;;;;;;;-141.28;100.00;51845.81;5100538;28;20478;-77
2022/12/09 07:06:34;;;;;;;58.23;28.83;;;;;;;-141.28;100.00;51879.19;5100265;28;20445;-77
2022/12/09 07:09:04;;;;;;;58.80;29.47;;;;;;;-141.28;100.00;51832.06;5099389;28;20483;-77
2022/12/09 07:11:33;;;;;;;52.53;28.70;;;;;;;-141.28;100.00;51763.34;5094328;28;20960;-75
2022/12/09 07:14:01;;;;;;;53.83;28.53;;;;;;;-141.28;100.00;51786.91;5093316;28;20453;-76
2022/12/09 07:16:30;;;;;;;57.80;28.77;;;;;;;-141.28;100.00;51792.81;5093742;28;20456;-76
2022/12/09 07:18:57;;;;;;;55.20;27.83;;;;;;;-141.28;100.00;51731.94;5093435;28;20478;-76
2022/12/09 07:21:24;;;;;;;53.43;27.20;;;;;;;-141.28;100.00;51623.94;5103041;28;20465;-76
2022/12/09 07:23:51;;;;;;;62.90;32.97;;;;;;;-141.28;100.00;51631.78;5097492;28;20449;-77
2022/12/09 07:26:20;;;;;;;63.43;32.57;;;;;;;-141.28;100.00;51537.53;5093458;28;20473;-78
2022/12/09 07:28:49;;;;;;;59.77;31.23;;;;;;;-141.28;100.00;51618.03;5093195;28;20834;-76
2022/12/09 07:31:20;;;;;;;65.77;33.80;;;;;;;-141.28;100.00;51547.34;5093222;28;20561;-77
2022/12/09 07:33:49;;;;;;;54.07;32.23;;;;;;;-141.28;100.00;51396.16;5092953;28;20452;-77
2022/12/09 07:36:16;;;;;;;57.73;33.97;;;;;;;-141.28;100.00;51468.81;5093057;28;20446;-76
2022/12/09 07:38:44;;;;;;;61.30;34.47;;;;;;;-141.28;100.00;51398.13;5097503;28;20490;-76
2022/12/09 07:41:16;;;;;;;62.83;34.87;;;;;;;-141.28;100.00;51272.47;5105557;28;20503;-77
2022/12/09 07:43:44;;;;;;;53.10;33.97;;;;;;;-141.28;100.00;51158.59;5092710;28;20457;-77
2022/12/09 07:46:13;;;;;;;68.97;37.80;;;;;;;-141.28;100.00;51237.13;5097371;28;20476;-75
2022/12/09 07:48:40;;;;;;;61.93;36.23;;;;;;;-141.28;100.00;51252.84;5101428;28;20495;-77
2022/12/09 07:51:09;;;;;;;85.20;48.40;;;;;;;-141.28;100.00;51243.03;5092928;28;20983;-78
2022/12/09 07:53:37;;;;;;;68.43;39.13;;;;;;;-141.28;100.00;51209.66;5093416;28;20449;-77
2022/12/09 07:56:05;;;;;;;71.70;39.43;;;;;;;-141.28;100.00;51201.81;5103461;28;21019;-77
2022/12/09 07:58:33;;;;;;;79.87;43.87;;;;;;;-141.28;100.00;51158.59;5095274;28;20506;-76
2022/12/09 08:01:05;;;;;;;87.60;41.67;;;;;;;-141.28;100.00;50997.63;5104128;28;20502;-78
2022/12/09 08:03:34;;;;;;;56.77;31.60;;;;;;;-141.28;100.00;51241.06;5094335;28;20438;-75
2022/12/09 08:06:01;;;;;;;66.90;35.23;;;;;;;-141.28;100.00;51248.91;5092794;28;20450;-76
2022/12/09 08:08:30;;;;;;;61.17;33.93;;;;;;;-141.28;100.00;51225.34;5111916;28;20999;-77
2022/12/09 08:10:58;;;;;;;63.47;31.80;;;;;;;-141.28;100.00;51243.03;5106938;28;20453;-76
2022/12/09 08:13:26;;;;;;;59.27;30.47;;;;;;;-141.28;100.00;51221.44;5092613;28;20514;-80
2022/12/09 08:15:53;;;;;;;62.40;32.97;;;;;;;-141.28;100.00;51154.69;5111207;28;20545;-76
2022/12/09 08:18:21;;;;;;;67.90;32.87;;;;;;;-141.28;100.00;51029.03;5098793;28;20463;-76
2022/12/09 08:20:49;;;;;;;59.17;31.83;;;;;;;-141.28;100.00;51068.28;5112630;28;20449;-75
2022/12/09 08:23:17;;;;;;;56.73;31.83;;;;;;;-141.28;100.00;50974.06;5098493;28;20531;-76
2022/12/09 08:25:46;;;;;;;52.33;29.03;;;;;;;-141.28;100.00;50993.69;5101028;28;20876;-75
2022/12/09 08:28:13;;;;;;;58.33;31.77;;;;;;;-141.28;100.00;50989.78;5092018;28;20888;-77
2022/12/09 08:30:40;;;;;;;58.80;30.10;;;;;;;-141.28;100.00;51060.44;5092515;28;20506;-78
2022/12/09 08:33:09;;;;;;;51.87;29.40;;;;;;;-141.28;100.00;51095.78;5110242;28;20452;-76
2022/12/09 08:35:37;;;;;;;51.40;30.67;;;;;;;-141.28;100.00;51127.19;5111999;28;21052;-76
2022/12/09 08:38:04;;;;;;;52.17;28.30;;;;;;;-141.28;100.00;51111.50;5092770;28;20442;-78
2022/12/09 08:40:31;;;;;;;63.43;35.93;;;;;;;-141.28;100.00;51052.59;5092124;28;20453;-75
2022/12/09 08:42:59;;;;;;;66.63;34.27;;;;;;;-141.28;100.00;51036.88;5105770;28;20522;-77
2022/12/09 08:45:27;;;;;;;54.23;29.57;;;;;;;-141.28;100.00;50991.72;5092272;28;20526;-76
2022/12/09 08:47:54;;;;;;;53.00;28.57;;;;;;;-141.28;100.00;51040.81;5091799;28;20549;-78
2022/12/09 08:50:22;;;;;;;51.97;29.07;;;;;;;-141.28;100.00;50991.72;5104908;28;21036;-78
2022/12/09 08:52:50;;;;;;;52.73;29.80;;;;;;;-141.28;100.00;50985.84;5091767;28;20499;-76
2022/12/09 08:55:17;;;;;;;51.97;27.70;;;;;;;-141.28;100.00;50911.25;5092703;28;20509;-74
2022/12/09 08:57:45;;;;;;;53.47;27.30;;;;;;;-141.28;100.00;50817.03;5091510;28;20450;-78
2022/12/09 09:00:15;;;;;;;50.10;29.37;;;;;;;-141.28;100.00;50856.28;5091717;28;20877;-77
2022/12/09 09:02:42;;;;;;;56.20;30.33;;;;;;;-141.28;100.00;50848.44;5092060;28;20515;-78
2022/12/09 09:05:10;;;;;;;54.80;29.50;;;;;;;-141.28;100.00;50756.16;5091743;28;20879;-79
2022/12/09 09:07:38;;;;;;;57.30;31.70;;;;;;;-141.28;100.00;50695.31;5092377;28;20449;-77
2022/12/09 09:10:07;;;;;;;55.33;30.37;;;;;;;-141.28;100.00;50587.34;5091574;28;20450;-76
2022/12/09 09:12:34;;;;;;;58.33;32.53;;;;;;;-141.28;100.00;50502.94;5104453;28;20967;-76
2022/12/09 09:15:06;;;;;;;51.73;26.80;;;;;;;-141.28;100.00;50418.53;5107287;28;20505;-76
2022/12/09 09:17:34;;;;;;;51.80;27.60;;;;;;;-141.28;100.00;50326.28;5100590;28;20452;-76
2022/12/09 09:20:01;;;;;;;52.00;28.23;;;;;;;-141.28;100.00;50255.63;5100487;28;20437;-75
2022/12/09 09:22:30;;;;;;;48.17;21.17;;;;;;;-141.28;100.00;50218.34;5114576;28;20449;-76
2022/12/09 09:24:57;;;;;;;44.67;20.57;;;;;;;-141.28;100.00;50190.84;5103681;28;20484;-78
2022/12/09 09:27:24;;;;;;;40.20;20.63;;;;;;;-141.28;100.00;50122.16;5102000;28;20449;-75
2022/12/09 09:29:52;;;;;;;38.33;19.03;;;;;;;-141.28;100.00;50059.34;5100641;28;21029;-78
2022/12/09 09:32:18;;;;;;;48.23;21.00;;;;;;;-141.28;100.00;50114.31;5108174;28;20445;-78
2022/12/09 09:34:49;;;;;;;40.00;19.97;;;;;;;-141.28;100.00;49843.47;5097531;28;20940;-77
2022/12/09 09:37:17;;;;;;;43.27;21.67;;;;;;;-141.28;100.00;50124.13;5116548;28;20944;-73
2022/12/09 09:39:44;;;;;;;53.27;25.73;;;;;;;-141.28;100.00;50086.84;5099712;28;20994;-75
2022/12/09 09:42:16;;;;;;;52.40;22.87;;;;;;;-141.28;100.00;50010.28;5105245;28;20448;-75
2022/12/09 09:44:46;;;;;;;49.07;23.13;;;;;;;-141.28;100.00;49988.69;5098410;28;20690;-78
2022/12/09 09:47:17;;;;;;;50.03;24.03;;;;;;;-141.28;100.00;49953.38;5095074;28;20514;-78
2022/12/09 09:49:51;;;;;;;48.00;24.17;;;;;;;-141.28;100.00;49941.59;5095426;28;20493;-75
2022/12/09 09:52:20;;;;;;;49.30;24.50;;;;;;;-141.28;100.00;49870.94;5108820;28;20463;-78
2022/12/09 09:54:48;;;;;;;47.53;22.40;;;;;;;-141.28;100.00;49853.28;5101574;28;20452;-76
2022/12/09 09:57:22;;;;;;;50.97;24.20;;;;;;;-141.28;100.00;49792.44;5103125;28;20449;-78
2022/12/09 10:00:05;;;;;;;51.23;26.03;;;;;;;-141.28;100.00;49747.31;5113574;28;20497;-77
2022/12/09 10:02:49;;;;;;;56.97;24.57;;;;;;;-141.28;100.00;49713.94;5105707;28;20444;-79
2022/12/09 10:05:22;;;;;;;55.97;23.10;;;;;;;-141.28;100.00;49666.84;5095204;28;20452;-78
2022/12/09 10:07:53;;;;;;;51.60;23.73;;;;;;;-141.28;100.00;49659.00;5095019;28;20848;-75
2022/12/09 10:10:42;;;;;;;49.33;24.13;;;;;;;-141.28;100.00;49615.84;5095288;28;20918;-75
2022/12/09 10:13:23;;;;;;;47.60;25.20;;;;;;;-141.28;100.00;49578.56;5095006;28;20449;-75
2022/12/09 10:16:01;;;;;;;45.83;24.00;;;;;;;-141.28;100.00;49592.28;5095216;28;20511;-76
2022/12/09 10:18:35;;;;;;;44.33;25.33;;;;;;;-141.28;100.00;49505.94;5094812;28;20443;-80
2022/12/09 10:21:15;;;;;;;58.90;26.83;;;;;;;-141.28;100.00;49596.22;5094810;28;20453;-75
2022/12/09 10:23:43;;;;;;;44.10;22.77;;;;;;;-141.28;100.00;49615.84;5095571;28;20445;-76
2022/12/09 10:26:18;;;;;;;45.50;22.70;;;;;;;-141.28;100.00;49657.03;5094962;28;20999;-78
2022/12/09 10:28:49;;;;;;;48.87;24.60;;;;;;;-141.28;100.00;49678.63;5108007;28;20498;-76
2022/12/09 10:31:17;;;;;;;50.70;24.33;;;;;;;-141.28;100.00;49696.28;5114640;28;20509;-77
2022/12/09 10:33:44;;;;;;;51.90;25.30;;;;;;;-141.28;100.00;49692.38;5101305;28;20563;-77
2022/12/09 10:36:24;;;;;;;52.60;26.20;;;;;;;-141.28;100.00;49686.47;5106811;28;20504;-76
2022/12/09 10:38:51;;;;;;;65.37;28.80;;;;;;;-141.28;100.00;49645.28;5094485;28;20798;-78
2022/12/09 10:44:19;;;;;;;48.17;23.03;;;;;;;-141.28;100.00;49602.09;5070929;28;20458;-77
2022/12/09 10:46:47;;;;;;;54.10;24.90;;;;;;;-141.28;100.00;49572.66;5116079;28;20931;-75
2022/12/09 10:49:20;;;;;;;52.77;23.87;;;;;;;-141.28;100.00;49560.88;5095715;28;20468;-78
2022/12/09 10:51:51;;;;;;;54.60;23.17;;;;;;;-141.28;100.00;49556.97;5094651;28;20932;-76
2022/12/09 10:54:28;;;;;;;66.30;25.83;;;;;;;-141.28;100.00;49545.19;5094576;28;20449;-78
2022/12/09 10:57:05;;;;;;;56.40;24.50;;;;;;;-141.28;100.00;49543.22;5099657;28;20484;-77
2022/12/09 10:59:33;;;;;;;54.83;23.63;;;;;;;-141.28;100.00;49519.69;5114555;28;20444;-76
2022/12/09 11:02:17;;;;;;;49.60;23.03;;;;;;;-141.28;100.00;49521.63;5094066;28;20438;-76
2022/12/09 11:04:45;;;;;;;46.27;22.10;;;;;;;-141.28;100.00;49486.31;5109377;28;20478;-76
2022/12/09 11:07:18;;;;;;;44.40;22.13;;;;;;;-141.28;100.00;49468.66;5114089;28;20585;-77
2022/12/09 11:09:47;;;;;;;49.90;23.17;;;;;;;-141.28;100.00;49458.84;5113590;28;20817;-77
2022/12/09 11:12:29;;;;;;;44.30;20.67;;;;;;;-141.28;100.00;49458.84;5115210;28;20207;-76